Linneus, MO

7:06 AM CDT on July 12, 2014 (GMT -0500)
Barlow Back Yard (KMOHALE2) Elev 755 ft | 39.59 °N, 93.30 °W | Change Station

Current weather conditions updated 5 minutes ago

Clear
Clear
75.7 °F
Feels Like 76 °F
N
2.7
Wind Variable Wind from SW

Today is forecast to be nearly the same temperature as yesterday. Late night thunderstorms tonight.

Today
High -- | Low -- °F
--% Chance of Precip.
Yesterday
High -- | Low -- °F
Precip. -- in
5:54 AM 8:40 PM
Full, 100% visible
Pressure 30.05 in
Visibility 10.0 miles
Clouds Clear
Heat Index 76 °F
Dew Point 72 °F
Humidity 88%
Rainfall 0.00 in
Snow Depth Not available.
UV 1 out of 12
Pollen 4.20 out of 12
Air Quality Not available.
Flu Activity Sporadic
METAR KIRK 121155Z AUTO 22005KT 10SM CLR 24/22 A3007 RMK AO2 SLP176 T02440217 10256 20222 53008

More Conditions Fewer Conditions

Pressure 30.05 in
Visibility 10.0 miles
Clouds Clear
Heat Index 76 °F
Dew Point 72 °F
Humidity 88%
Rainfall 0.00 in
Snow Depth Not available.
UV 1 out of 12
Pollen 4.20 out of 12
Air Quality Not available.
Flu Activity Sporadic
METAR KIRK 121155Z AUTO 22005KT 10SM CLR 24/22 A3007 RMK AO2 SLP176 T02440217 10256 20222 53008

More Conditions Fewer Conditions

10-Day Weather Forecast

Almanac

Astronomy

Jul. 12, 2014 Rise Set
Actual Time 5:54 AM CDT 8:40 PM CDT
Civil Twilight 5:22 AM CDT 9:12 PM CDT
Nautical Twilight 4:42 AM CDT 9:52 PM CDT
Astronomical Twilight 3:56 AM CDT 10:38 PM CDT
Moon 8:43 PM CDT 6:14 AM CDT
Length of Visible Light 15h 50m
Length of Day
14h 46m
Tomorrow will be 1m 13s shorter.
Full, 100% of the Moon is Illuminated
Today
Full
Jul 18
Last Quarter
Jul 26
New
Aug 3
First Quarter
Aug 10
Full

Today's Extremes

State Highs State Lows

Community

WunderPhotos

Upload Photos

1,732,787 photos uploaded!

WunderBlogs® & News

Nearby

Snow Depth

Station Depth Elevation
No new snow has been reported.

Earthquake Activity

City Distance Mag. Time & Date
No recent earthquake activity has been reported nearby.
Minimum magnitude displayed is 2.5.

Coastal Water Temperatures

Place Temperature
No Stations Reporting

Nearby Weather Stations

Station Location Temp. Heat Index Dew Point Humidity Wind Precip. Elev Updated Type
Barlow Back Yard, Hale, MO 75.7 °F 76 °F 72 °F 88% SW  at  2.7 mph - / hr 755 ft 7:01 AM CDT Normal
North Central Missouri, Browning, MO 75.8 °F 75 °F 74 °F 93% SSW  at  0.0 mph 0.00 in / hr 810 ft 7:06 AM CDT Rapid Fire
ENGLERT - KMOHALE3, Hale, MO 76.1 °F 76 °F 73 °F 91% SW  at  3.1 mph 0.00 in / hr 764 ft 7:06 AM CDT Rapid Fire
RAWS CHILLICOTHE MO, Chillicothe, MO 76 °F 77 °F 71 °F 84% SSW  at  4 mph 0.00 in / hr 779 ft 6:13 AM CDT MADIS

Show More Stations Show Fewer Stations